sensor_id;sensor_type;location;lat;lon;timestamp;P1;durP1;ratioP1;P2;durP2;ratioP2
11996;SDS011;6058;48.704;9.474;2023-11-22T00:01:20;6.90;;;5.00;;
11996;SDS011;6058;48.704;9.474;2023-11-22T00:03:47;6.63;;;4.53;;
11996;SDS011;6058;48.704;9.474;2023-11-22T00:06:15;8.50;;;5.17;;
11996;SDS011;6058;48.704;9.474;2023-11-22T00:08:45;8.03;;;4.83;;
11996;SDS011;6058;48.704;9.474;2023-11-22T00:11:13;4.90;;;3.97;;
11996;SDS011;6058;48.704;9.474;2023-11-22T00:13:41;4.37;;;3.83;;
11996;SDS011;6058;48.704;9.474;2023-11-22T00:16:09;5.20;;;4.63;;
11996;SDS011;6058;48.704;9.474;2023-11-22T00:18:37;4.93;;;4.20;;
11996;SDS011;6058;48.704;9.474;2023-11-22T00:21:05;5.23;;;3.93;;
11996;SDS011;6058;48.704;9.474;2023-11-22T00:23:33;5.83;;;4.37;;
11996;SDS011;6058;48.704;9.474;2023-11-22T00:26:00;4.87;;;3.90;;
11996;SDS011;6058;48.704;9.474;2023-11-22T00:28:27;3.33;;;3.03;;
11996;SDS011;6058;48.704;9.474;2023-11-22T00:30:56;2.93;;;2.63;;
11996;SDS011;6058;48.704;9.474;2023-11-22T00:33:23;3.40;;;2.70;;
11996;SDS011;6058;48.704;9.474;2023-11-22T00:35:51;3.33;;;3.03;;
11996;SDS011;6058;48.704;9.474;2023-11-22T00:38:21;2.20;;;2.00;;
11996;SDS011;6058;48.704;9.474;2023-11-22T00:40:49;1.90;;;1.80;;
11996;SDS011;6058;48.704;9.474;2023-11-22T00:43:16;1.20;;;1.20;;
11996;SDS011;6058;48.704;9.474;2023-11-22T00:45:44;1.40;;;1.30;;
11996;SDS011;6058;48.704;9.474;2023-11-22T00:48:12;1.63;;;1.50;;
11996;SDS011;6058;48.704;9.474;2023-11-22T00:50:39;1.23;;;1.03;;
11996;SDS011;6058;48.704;9.474;2023-11-22T00:53:07;1.43;;;1.33;;
11996;SDS011;6058;48.704;9.474;2023-11-22T00:55:34;1.47;;;1.10;;
11996;SDS011;6058;48.704;9.474;2023-11-22T00:58:01;2.07;;;1.73;;
11996;SDS011;6058;48.704;9.474;2023-11-22T01:00:29;1.60;;;1.50;;
11996;SDS011;6058;48.704;9.474;2023-11-22T01:02:57;2.20;;;2.00;;
11996;SDS011;6058;48.704;9.474;2023-11-22T01:05:25;1.67;;;1.57;;
11996;SDS011;6058;48.704;9.474;2023-11-22T01:07:52;1.87;;;1.73;;
11996;SDS011;6058;48.704;9.474;2023-11-22T01:10:20;2.00;;;1.87;;
11996;SDS011;6058;48.704;9.474;2023-11-22T01:12:47;2.03;;;1.80;;
11996;SDS011;6058;48.704;9.474;2023-11-22T01:15:14;2.07;;;1.83;;
11996;SDS011;6058;48.704;9.474;2023-11-22T01:17:42;1.33;;;1.23;;
11996;SDS011;6058;48.704;9.474;2023-11-22T01:20:10;1.80;;;1.70;;
11996;SDS011;6058;48.704;9.474;2023-11-22T01:22:40;2.63;;;1.80;;
11996;SDS011;6058;48.704;9.474;2023-11-22T01:25:08;1.93;;;1.70;;
11996;SDS011;6058;48.704;9.474;2023-11-22T01:27:35;1.23;;;1.13;;
11996;SDS011;6058;48.704;9.474;2023-11-22T01:30:02;1.53;;;1.43;;
11996;SDS011;6058;48.704;9.474;2023-11-22T01:32:32;1.80;;;1.70;;
11996;SDS011;6058;48.704;9.474;2023-11-22T01:34:59;2.00;;;1.80;;
11996;SDS011;6058;48.704;9.474;2023-11-22T01:37:26;2.50;;;1.90;;
11996;SDS011;6058;48.704;9.474;2023-11-22T01:39:55;2.10;;;1.90;;
11996;SDS011;6058;48.704;9.474;2023-11-22T01:42:22;2.10;;;2.00;;
11996;SDS011;6058;48.704;9.474;2023-11-22T01:44:50;2.63;;;2.43;;
11996;SDS011;6058;48.704;9.474;2023-11-22T01:47:18;2.20;;;2.00;;
11996;SDS011;6058;48.704;9.474;2023-11-22T01:49:45;1.83;;;1.73;;
11996;SDS011;6058;48.704;9.474;2023-11-22T01:52:13;2.20;;;2.00;;
11996;SDS011;6058;48.704;9.474;2023-11-22T01:54:41;1.57;;;1.47;;
11996;SDS011;6058;48.704;9.474;2023-11-22T01:57:11;2.53;;;2.30;;
11996;SDS011;6058;48.704;9.474;2023-11-22T01:59:38;3.07;;;1.90;;
11996;SDS011;6058;48.704;9.474;2023-11-22T02:02:05;2.00;;;1.83;;
11996;SDS011;6058;48.704;9.474;2023-11-22T02:04:33;1.83;;;1.73;;
11996;SDS011;6058;48.704;9.474;2023-11-22T02:07:00;2.80;;;2.30;;
11996;SDS011;6058;48.704;9.474;2023-11-22T02:09:27;2.60;;;2.40;;
11996;SDS011;6058;48.704;9.474;2023-11-22T02:11:54;3.43;;;2.20;;
11996;SDS011;6058;48.704;9.474;2023-11-22T02:14:24;2.43;;;2.23;;
11996;SDS011;6058;48.704;9.474;2023-11-22T02:16:51;2.37;;;2.17;;
11996;SDS011;6058;48.704;9.474;2023-11-22T02:19:18;2.43;;;2.13;;
11996;SDS011;6058;48.704;9.474;2023-11-22T02:21:46;2.57;;;2.37;;
11996;SDS011;6058;48.704;9.474;2023-11-22T02:24:14;2.47;;;2.20;;
11996;SDS011;6058;48.704;9.474;2023-11-22T02:26:45;2.23;;;2.03;;
11996;SDS011;6058;48.704;9.474;2023-11-22T02:29:12;1.90;;;1.80;;
11996;SDS011;6058;48.704;9.474;2023-11-22T02:31:41;3.80;;;2.47;;
11996;SDS011;6058;48.704;9.474;2023-11-22T02:34:09;2.30;;;2.00;;
11996;SDS011;6058;48.704;9.474;2023-11-22T02:36:36;4.33;;;1.80;;
11996;SDS011;6058;48.704;9.474;2023-11-22T02:39:03;2.30;;;2.10;;
11996;SDS011;6058;48.704;9.474;2023-11-22T02:41:32;1.90;;;1.80;;
11996;SDS011;6058;48.704;9.474;2023-11-22T02:44:00;1.90;;;1.80;;
11996;SDS011;6058;48.704;9.474;2023-11-22T02:46:27;2.17;;;1.93;;
11996;SDS011;6058;48.704;9.474;2023-11-22T02:48:56;2.17;;;1.93;;
11996;SDS011;6058;48.704;9.474;2023-11-22T02:51:24;2.23;;;2.03;;
11996;SDS011;6058;48.704;9.474;2023-11-22T02:53:52;1.97;;;1.87;;
11996;SDS011;6058;48.704;9.474;2023-11-22T02:56:19;2.43;;;2.23;;
11996;SDS011;6058;48.704;9.474;2023-11-22T02:58:50;2.13;;;1.93;;
11996;SDS011;6058;48.704;9.474;2023-11-22T03:01:17;1.97;;;1.83;;
11996;SDS011;6058;48.704;9.474;2023-11-22T03:03:44;2.47;;;2.27;;
11996;SDS011;6058;48.704;9.474;2023-11-22T03:06:17;1.77;;;1.67;;
11996;SDS011;6058;48.704;9.474;2023-11-22T03:08:44;2.13;;;1.90;;
11996;SDS011;6058;48.704;9.474;2023-11-22T03:11:13;4.57;;;3.00;;
11996;SDS011;6058;48.704;9.474;2023-11-22T03:13:40;2.70;;;2.40;;
11996;SDS011;6058;48.704;9.474;2023-11-22T03:16:10;2.10;;;1.97;;
11996;SDS011;6058;48.704;9.474;2023-11-22T03:18:37;2.80;;;2.40;;
11996;SDS011;6058;48.704;9.474;2023-11-22T03:21:05;4.57;;;2.60;;
11996;SDS011;6058;48.704;9.474;2023-11-22T03:23:32;2.90;;;2.37;;
11996;SDS011;6058;48.704;9.474;2023-11-22T03:25:59;2.93;;;2.57;;
11996;SDS011;6058;48.704;9.474;2023-11-22T03:28:27;3.93;;;2.40;;
11996;SDS011;6058;48.704;9.474;2023-11-22T03:30:55;2.90;;;2.70;;
11996;SDS011;6058;48.704;9.474;2023-11-22T03:33:26;2.60;;;2.30;;
11996;SDS011;6058;48.704;9.474;2023-11-22T03:35:53;3.63;;;2.60;;
11996;SDS011;6058;48.704;9.474;2023-11-22T03:38:20;3.40;;;2.93;;
11996;SDS011;6058;48.704;9.474;2023-11-22T03:40:49;2.87;;;2.60;;
11996;SDS011;6058;48.704;9.474;2023-11-22T03:43:16;3.33;;;2.80;;
11996;SDS011;6058;48.704;9.474;2023-11-22T03:45:43;1.10;;;1.03;;
11996;SDS011;6058;48.704;9.474;2023-11-22T03:48:10;4.93;;;3.00;;
11996;SDS011;6058;48.704;9.474;2023-11-22T03:50:39;4.60;;;2.40;;
11996;SDS011;6058;48.704;9.474;2023-11-22T03:53:06;5.27;;;2.47;;
11996;SDS011;6058;48.704;9.474;2023-11-22T03:55:33;2.87;;;2.57;;
11996;SDS011;6058;48.704;9.474;2023-11-22T03:58:00;2.50;;;2.00;;
11996;SDS011;6058;48.704;9.474;2023-11-22T04:00:27;3.57;;;2.67;;
11996;SDS011;6058;48.704;9.474;2023-11-22T04:02:55;2.97;;;2.67;;
11996;SDS011;6058;48.704;9.474;2023-11-22T04:05:24;4.50;;;2.67;;
11996;SDS011;6058;48.704;9.474;2023-11-22T04:07:53;2.63;;;2.43;;
11996;SDS011;6058;48.704;9.474;2023-11-22T04:10:23;3.27;;;2.60;;
11996;SDS011;6058;48.704;9.474;2023-11-22T04:12:51;2.83;;;2.47;;
11996;SDS011;6058;48.704;9.474;2023-11-22T04:15:18;3.07;;;2.60;;
11996;SDS011;6058;48.704;9.474;2023-11-22T04:17:46;3.10;;;2.60;;
11996;SDS011;6058;48.704;9.474;2023-11-22T04:20:14;3.57;;;3.00;;
11996;SDS011;6058;48.704;9.474;2023-11-22T04:22:43;3.13;;;2.50;;
11996;SDS011;6058;48.704;9.474;2023-11-22T04:25:12;3.37;;;2.77;;
11996;SDS011;6058;48.704;9.474;2023-11-22T04:27:39;4.10;;;2.67;;
11996;SDS011;6058;48.704;9.474;2023-11-22T04:30:07;2.90;;;2.63;;
11996;SDS011;6058;48.704;9.474;2023-11-22T04:32:38;2.43;;;2.23;;
11996;SDS011;6058;48.704;9.474;2023-11-22T04:35:06;2.73;;;2.40;;
11996;SDS011;6058;48.704;9.474;2023-11-22T04:37:34;3.07;;;2.70;;
11996;SDS011;6058;48.704;9.474;2023-11-22T04:40:02;3.10;;;2.80;;
11996;SDS011;6058;48.704;9.474;2023-11-22T04:42:34;3.90;;;2.70;;
11996;SDS011;6058;48.704;9.474;2023-11-22T04:45:01;3.10;;;2.37;;
11996;SDS011;6058;48.704;9.474;2023-11-22T04:47:28;3.87;;;2.73;;
11996;SDS011;6058;48.704;9.474;2023-11-22T04:49:56;2.97;;;2.33;;
11996;SDS011;6058;48.704;9.474;2023-11-22T04:52:23;4.13;;;2.30;;
11996;SDS011;6058;48.704;9.474;2023-11-22T04:54:50;3.47;;;3.17;;
11996;SDS011;6058;48.704;9.474;2023-11-22T04:57:17;3.00;;;2.37;;
11996;SDS011;6058;48.704;9.474;2023-11-22T04:59:46;3.00;;;2.60;;
11996;SDS011;6058;48.704;9.474;2023-11-22T05:02:13;3.20;;;2.37;;
11996;SDS011;6058;48.704;9.474;2023-11-22T05:04:41;3.73;;;2.33;;
11996;SDS011;6058;48.704;9.474;2023-11-22T05:07:12;2.47;;;1.87;;
11996;SDS011;6058;48.704;9.474;2023-11-22T05:09:39;2.90;;;2.60;;
11996;SDS011;6058;48.704;9.474;2023-11-22T05:12:08;4.67;;;3.00;;
11996;SDS011;6058;48.704;9.474;2023-11-22T05:14:36;4.07;;;2.70;;
11996;SDS011;6058;48.704;9.474;2023-11-22T05:17:04;2.80;;;2.60;;
11996;SDS011;6058;48.704;9.474;2023-11-22T05:19:32;2.40;;;2.20;;
11996;SDS011;6058;48.704;9.474;2023-11-22T05:21:59;3.03;;;2.60;;
11996;SDS011;6058;48.704;9.474;2023-11-22T05:24:26;3.27;;;2.90;;
11996;SDS011;6058;48.704;9.474;2023-11-22T05:26:53;3.47;;;2.70;;
11996;SDS011;6058;48.704;9.474;2023-11-22T05:29:20;2.67;;;2.47;;
11996;SDS011;6058;48.704;9.474;2023-11-22T05:31:47;4.37;;;2.70;;
11996;SDS011;6058;48.704;9.474;2023-11-22T05:34:16;3.07;;;2.73;;
11996;SDS011;6058;48.704;9.474;2023-11-22T05:36:43;7.57;;;5.43;;
11996;SDS011;6058;48.704;9.474;2023-11-22T05:39:10;4.93;;;4.53;;
11996;SDS011;6058;48.704;9.474;2023-11-22T05:41:38;7.53;;;6.10;;
11996;SDS011;6058;48.704;9.474;2023-11-22T05:44:05;4.30;;;4.00;;
11996;SDS011;6058;48.704;9.474;2023-11-22T05:46:33;3.33;;;3.07;;
11996;SDS011;6058;48.704;9.474;2023-11-22T05:49:00;5.70;;;4.87;;
11996;SDS011;6058;48.704;9.474;2023-11-22T05:51:28;3.93;;;3.53;;
11996;SDS011;6058;48.704;9.474;2023-11-22T05:53:56;3.27;;;2.97;;
11996;SDS011;6058;48.704;9.474;2023-11-22T05:56:23;3.70;;;3.40;;
11996;SDS011;6058;48.704;9.474;2023-11-22T05:58:50;3.60;;;3.27;;
11996;SDS011;6058;48.704;9.474;2023-11-22T06:01:17;4.33;;;3.93;;
11996;SDS011;6058;48.704;9.474;2023-11-22T06:03:44;4.53;;;4.13;;
11996;SDS011;6058;48.704;9.474;2023-11-22T06:06:12;3.90;;;3.47;;
11996;SDS011;6058;48.704;9.474;2023-11-22T06:08:41;3.70;;;3.40;;
11996;SDS011;6058;48.704;9.474;2023-11-22T06:11:08;3.50;;;3.20;;
11996;SDS011;6058;48.704;9.474;2023-11-22T06:13:38;3.93;;;3.30;;
11996;SDS011;6058;48.704;9.474;2023-11-22T06:16:06;5.57;;;2.63;;
11996;SDS011;6058;48.704;9.474;2023-11-22T06:18:34;3.57;;;3.10;;
11996;SDS011;6058;48.704;9.474;2023-11-22T06:21:05;4.73;;;3.47;;
11996;SDS011;6058;48.704;9.474;2023-11-22T06:23:35;4.90;;;3.70;;
11996;SDS011;6058;48.704;9.474;2023-11-22T06:26:04;5.40;;;3.37;;
11996;SDS011;6058;48.704;9.474;2023-11-22T06:28:31;3.63;;;3.27;;
11996;SDS011;6058;48.704;9.474;2023-11-22T06:31:01;4.87;;;4.30;;
11996;SDS011;6058;48.704;9.474;2023-11-22T06:33:29;5.80;;;5.20;;
11996;SDS011;6058;48.704;9.474;2023-11-22T06:35:56;3.33;;;3.03;;
11996;SDS011;6058;48.704;9.474;2023-11-22T06:38:23;3.63;;;3.23;;
11996;SDS011;6058;48.704;9.474;2023-11-22T06:40:50;2.97;;;2.63;;
11996;SDS011;6058;48.704;9.474;2023-11-22T06:43:19;3.73;;;3.37;;
11996;SDS011;6058;48.704;9.474;2023-11-22T06:45:46;4.73;;;3.47;;
11996;SDS011;6058;48.704;9.474;2023-11-22T06:48:13;3.80;;;2.87;;
11996;SDS011;6058;48.704;9.474;2023-11-22T06:50:40;3.77;;;2.90;;
11996;SDS011;6058;48.704;9.474;2023-11-22T06:53:08;3.50;;;3.17;;
11996;SDS011;6058;48.704;9.474;2023-11-22T06:55:35;2.63;;;2.43;;
11996;SDS011;6058;48.704;9.474;2023-11-22T06:58:03;3.83;;;2.97;;
11996;SDS011;6058;48.704;9.474;2023-11-22T07:00:32;3.83;;;2.37;;
11996;SDS011;6058;48.704;9.474;2023-11-22T07:02:59;3.53;;;2.90;;
11996;SDS011;6058;48.704;9.474;2023-11-22T07:05:27;4.57;;;3.43;;
11996;SDS011;6058;48.704;9.474;2023-11-22T07:07:55;3.03;;;2.73;;
11996;SDS011;6058;48.704;9.474;2023-11-22T07:10:22;3.00;;;2.70;;
11996;SDS011;6058;48.704;9.474;2023-11-22T07:12:49;3.40;;;2.90;;
11996;SDS011;6058;48.704;9.474;2023-11-22T07:15:16;3.57;;;2.97;;
11996;SDS011;6058;48.704;9.474;2023-11-22T07:17:45;3.07;;;2.57;;
11996;SDS011;6058;48.704;9.474;2023-11-22T07:20:12;3.27;;;2.73;;
11996;SDS011;6058;48.704;9.474;2023-11-22T07:22:42;3.20;;;2.87;;
11996;SDS011;6058;48.704;9.474;2023-11-22T07:25:09;4.03;;;2.77;;
11996;SDS011;6058;48.704;9.474;2023-11-22T07:27:43;3.43;;;3.03;;
11996;SDS011;6058;48.704;9.474;2023-11-22T07:30:11;5.53;;;3.83;;
11996;SDS011;6058;48.704;9.474;2023-11-22T07:32:39;4.57;;;3.40;;
11996;SDS011;6058;48.704;9.474;2023-11-22T07:35:08;4.57;;;2.73;;
11996;SDS011;6058;48.704;9.474;2023-11-22T07:37:35;3.10;;;2.77;;
11996;SDS011;6058;48.704;9.474;2023-11-22T07:40:05;4.07;;;2.87;;
11996;SDS011;6058;48.704;9.474;2023-11-22T07:42:36;3.97;;;3.00;;
11996;SDS011;6058;48.704;9.474;2023-11-22T07:45:04;4.23;;;2.97;;
11996;SDS011;6058;48.704;9.474;2023-11-22T07:47:31;7.10;;;3.00;;
11996;SDS011;6058;48.704;9.474;2023-11-22T07:49:58;4.37;;;2.83;;
11996;SDS011;6058;48.704;9.474;2023-11-22T07:52:28;3.10;;;2.80;;
11996;SDS011;6058;48.704;9.474;2023-11-22T07:54:55;2.93;;;2.33;;
11996;SDS011;6058;48.704;9.474;2023-11-22T07:57:22;2.70;;;2.50;;
11996;SDS011;6058;48.704;9.474;2023-11-22T07:59:52;3.67;;;2.83;;
11996;SDS011;6058;48.704;9.474;2023-11-22T08:02:20;2.60;;;2.37;;
11996;SDS011;6058;48.704;9.474;2023-11-22T08:04:48;2.37;;;2.10;;
11996;SDS011;6058;48.704;9.474;2023-11-22T08:07:16;2.70;;;2.50;;
11996;SDS011;6058;48.704;9.474;2023-11-22T08:09:44;3.23;;;2.93;;
11996;SDS011;6058;48.704;9.474;2023-11-22T08:12:12;2.90;;;2.63;;
11996;SDS011;6058;48.704;9.474;2023-11-22T08:14:39;4.97;;;2.53;;
11996;SDS011;6058;48.704;9.474;2023-11-22T08:17:09;3.30;;;2.70;;
11996;SDS011;6058;48.704;9.474;2023-11-22T08:19:37;3.60;;;3.30;;
11996;SDS011;6058;48.704;9.474;2023-11-22T08:22:05;3.37;;;3.07;;
11996;SDS011;6058;48.704;9.474;2023-11-22T08:24:32;3.47;;;3.17;;
11996;SDS011;6058;48.704;9.474;2023-11-22T08:27:01;3.67;;;3.30;;
11996;SDS011;6058;48.704;9.474;2023-11-22T08:29:29;3.20;;;3.00;;
11996;SDS011;6058;48.704;9.474;2023-11-22T08:31:56;3.43;;;2.87;;
11996;SDS011;6058;48.704;9.474;2023-11-22T08:34:23;2.93;;;2.30;;
11996;SDS011;6058;48.704;9.474;2023-11-22T08:36:50;4.10;;;3.57;;
11996;SDS011;6058;48.704;9.474;2023-11-22T08:39:18;3.37;;;2.77;;
11996;SDS011;6058;48.704;9.474;2023-11-22T08:41:45;3.43;;;2.63;;
11996;SDS011;6058;48.704;9.474;2023-11-22T08:44:16;3.20;;;2.43;;
11996;SDS011;6058;48.704;9.474;2023-11-22T08:46:44;2.50;;;2.30;;
11996;SDS011;6058;48.704;9.474;2023-11-22T08:49:12;3.57;;;2.57;;
11996;SDS011;6058;48.704;9.474;2023-11-22T08:51:40;2.43;;;2.23;;
11996;SDS011;6058;48.704;9.474;2023-11-22T08:54:08;2.27;;;1.90;;
11996;SDS011;6058;48.704;9.474;2023-11-22T08:56:35;4.03;;;2.37;;
11996;SDS011;6058;48.704;9.474;2023-11-22T08:59:02;3.60;;;2.63;;
11996;SDS011;6058;48.704;9.474;2023-11-22T09:01:32;2.93;;;2.17;;
11996;SDS011;6058;48.704;9.474;2023-11-22T09:03:59;3.00;;;2.70;;
11996;SDS011;6058;48.704;9.474;2023-11-22T09:06:26;2.40;;;2.20;;
11996;SDS011;6058;48.704;9.474;2023-11-22T09:08:54;2.70;;;2.50;;
11996;SDS011;6058;48.704;9.474;2023-11-22T09:11:22;2.70;;;2.50;;
11996;SDS011;6058;48.704;9.474;2023-11-22T09:13:49;2.50;;;2.30;;
11996;SDS011;6058;48.704;9.474;2023-11-22T09:16:18;3.30;;;2.80;;
11996;SDS011;6058;48.704;9.474;2023-11-22T09:18:49;4.13;;;2.53;;
11996;SDS011;6058;48.704;9.474;2023-11-22T09:21:17;2.43;;;2.23;;
11996;SDS011;6058;48.704;9.474;2023-11-22T09:23:44;2.47;;;2.27;;
11996;SDS011;6058;48.704;9.474;2023-11-22T09:26:13;3.13;;;2.63;;
11996;SDS011;6058;48.704;9.474;2023-11-22T09:28:40;3.07;;;2.77;;
11996;SDS011;6058;48.704;9.474;2023-11-22T09:31:08;2.93;;;2.23;;
11996;SDS011;6058;48.704;9.474;2023-11-22T09:33:38;2.90;;;2.70;;
11996;SDS011;6058;48.704;9.474;2023-11-22T09:36:07;3.53;;;2.90;;
11996;SDS011;6058;48.704;9.474;2023-11-22T09:38:36;3.80;;;2.60;;
11996;SDS011;6058;48.704;9.474;2023-11-22T09:41:03;3.10;;;2.33;;
11996;SDS011;6058;48.704;9.474;2023-11-22T09:43:33;3.80;;;2.63;;
11996;SDS011;6058;48.704;9.474;2023-11-22T09:46:00;3.00;;;2.70;;
11996;SDS011;6058;48.704;9.474;2023-11-22T09:48:27;3.37;;;2.83;;
11996;SDS011;6058;48.704;9.474;2023-11-22T09:50:56;2.87;;;2.57;;
11996;SDS011;6058;48.704;9.474;2023-11-22T09:53:29;5.00;;;4.50;;
11996;SDS011;6058;48.704;9.474;2023-11-22T09:55:58;3.47;;;3.17;;
11996;SDS011;6058;48.704;9.474;2023-11-22T09:58:25;3.57;;;3.27;;
11996;SDS011;6058;48.704;9.474;2023-11-22T10:00:54;3.57;;;2.80;;
11996;SDS011;6058;48.704;9.474;2023-11-22T10:03:21;4.50;;;3.27;;
11996;SDS011;6058;48.704;9.474;2023-11-22T10:05:49;3.30;;;3.00;;
11996;SDS011;6058;48.704;9.474;2023-11-22T10:08:17;3.63;;;3.03;;
11996;SDS011;6058;48.704;9.474;2023-11-22T10:10:49;4.10;;;2.47;;
11996;SDS011;6058;48.704;9.474;2023-11-22T10:13:19;4.07;;;2.53;;
11996;SDS011;6058;48.704;9.474;2023-11-22T10:15:46;2.83;;;2.53;;
11996;SDS011;6058;48.704;9.474;2023-11-22T10:18:14;2.83;;;2.53;;
11996;SDS011;6058;48.704;9.474;2023-11-22T10:20:42;3.03;;;2.73;;
11996;SDS011;6058;48.704;9.474;2023-11-22T10:23:11;4.30;;;3.10;;
11996;SDS011;6058;48.704;9.474;2023-11-22T10:25:42;6.50;;;2.97;;
11996;SDS011;6058;48.704;9.474;2023-11-22T10:28:11;4.23;;;3.77;;
11996;SDS011;6058;48.704;9.474;2023-11-22T10:30:38;3.93;;;2.60;;
11996;SDS011;6058;48.704;9.474;2023-11-22T10:33:07;3.17;;;2.93;;
11996;SDS011;6058;48.704;9.474;2023-11-22T10:35:38;5.77;;;3.23;;
11996;SDS011;6058;48.704;9.474;2023-11-22T10:38:07;4.17;;;3.37;;
11996;SDS011;6058;48.704;9.474;2023-11-22T10:40:35;3.57;;;3.23;;
11996;SDS011;6058;48.704;9.474;2023-11-22T10:43:02;4.80;;;3.60;;
11996;SDS011;6058;48.704;9.474;2023-11-22T10:45:31;3.30;;;3.00;;
11996;SDS011;6058;48.704;9.474;2023-11-22T10:48:00;6.90;;;3.73;;
11996;SDS011;6058;48.704;9.474;2023-11-22T10:50:27;4.30;;;3.33;;
11996;SDS011;6058;48.704;9.474;2023-11-22T10:52:56;4.47;;;3.33;;
11996;SDS011;6058;48.704;9.474;2023-11-22T10:55:26;3.97;;;3.40;;
11996;SDS011;6058;48.704;9.474;2023-11-22T10:57:54;3.53;;;3.00;;
11996;SDS011;6058;48.704;9.474;2023-11-22T11:00:22;3.30;;;3.00;;
11996;SDS011;6058;48.704;9.474;2023-11-22T11:02:57;3.20;;;2.43;;
11996;SDS011;6058;48.704;9.474;2023-11-22T11:05:27;3.97;;;3.37;;
11996;SDS011;6058;48.704;9.474;2023-11-22T11:07:56;3.13;;;2.83;;
11996;SDS011;6058;48.704;9.474;2023-11-22T11:10:26;4.37;;;3.57;;
11996;SDS011;6058;48.704;9.474;2023-11-22T11:12:55;3.43;;;2.80;;
11996;SDS011;6058;48.704;9.474;2023-11-22T11:15:22;3.43;;;2.90;;
11996;SDS011;6058;48.704;9.474;2023-11-22T11:17:50;4.07;;;3.37;;
11996;SDS011;6058;48.704;9.474;2023-11-22T11:20:18;4.30;;;3.37;;
11996;SDS011;6058;48.704;9.474;2023-11-22T11:22:47;3.50;;;3.20;;
11996;SDS011;6058;48.704;9.474;2023-11-22T11:25:15;4.00;;;3.20;;
11996;SDS011;6058;48.704;9.474;2023-11-22T11:27:43;3.30;;;2.77;;
11996;SDS011;6058;48.704;9.474;2023-11-22T11:32:56;3.17;;;2.60;;
11996;SDS011;6058;48.704;9.474;2023-11-22T11:35:38;2.63;;;2.40;;
11996;SDS011;6058;48.704;9.474;2023-11-22T11:38:05;2.40;;;2.13;;
11996;SDS011;6058;48.704;9.474;2023-11-22T11:40:34;3.33;;;2.67;;
11996;SDS011;6058;48.704;9.474;2023-11-22T11:43:02;3.20;;;2.87;;
11996;SDS011;6058;48.704;9.474;2023-11-22T11:45:29;2.70;;;2.50;;
11996;SDS011;6058;48.704;9.474;2023-11-22T11:47:56;3.77;;;3.37;;
11996;SDS011;6058;48.704;9.474;2023-11-22T11:50:24;3.53;;;3.20;;
11996;SDS011;6058;48.704;9.474;2023-11-22T11:52:53;5.73;;;3.20;;
11996;SDS011;6058;48.704;9.474;2023-11-22T11:55:20;4.20;;;2.80;;
11996;SDS011;6058;48.704;9.474;2023-11-22T11:57:47;3.17;;;2.73;;
11996;SDS011;6058;48.704;9.474;2023-11-22T12:00:14;3.17;;;2.57;;
11996;SDS011;6058;48.704;9.474;2023-11-22T12:02:41;4.07;;;3.00;;
11996;SDS011;6058;48.704;9.474;2023-11-22T12:05:08;4.00;;;2.63;;
11996;SDS011;6058;48.704;9.474;2023-11-22T12:07:36;3.03;;;2.47;;
11996;SDS011;6058;48.704;9.474;2023-11-22T12:10:05;3.37;;;3.07;;
11996;SDS011;6058;48.704;9.474;2023-11-22T12:12:33;3.83;;;2.60;;
11996;SDS011;6058;48.704;9.474;2023-11-22T12:15:01;3.27;;;2.60;;
11996;SDS011;6058;48.704;9.474;2023-11-22T12:17:28;3.03;;;2.67;;
11996;SDS011;6058;48.704;9.474;2023-11-22T12:20:08;2.60;;;2.20;;
11996;SDS011;6058;48.704;9.474;2023-11-22T12:22:36;2.70;;;2.47;;
11996;SDS011;6058;48.704;9.474;2023-11-22T12:25:05;2.87;;;2.40;;
11996;SDS011;6058;48.704;9.474;2023-11-22T12:27:32;2.50;;;2.30;;
11996;SDS011;6058;48.704;9.474;2023-11-22T12:30:00;2.97;;;2.50;;
11996;SDS011;6058;48.704;9.474;2023-11-22T12:32:27;2.40;;;2.20;;
11996;SDS011;6058;48.704;9.474;2023-11-22T12:34:54;3.60;;;2.83;;
11996;SDS011;6058;48.704;9.474;2023-11-22T12:37:22;4.97;;;3.33;;
11996;SDS011;6058;48.704;9.474;2023-11-22T12:39:50;3.70;;;3.10;;
11996;SDS011;6058;48.704;9.474;2023-11-22T12:42:19;3.00;;;2.70;;
11996;SDS011;6058;48.704;9.474;2023-11-22T12:44:47;3.70;;;2.90;;
11996;SDS011;6058;48.704;9.474;2023-11-22T12:47:14;3.83;;;3.10;;
11996;SDS011;6058;48.704;9.474;2023-11-22T12:49:43;3.57;;;2.60;;
11996;SDS011;6058;48.704;9.474;2023-11-22T12:52:11;2.67;;;2.43;;
11996;SDS011;6058;48.704;9.474;2023-11-22T12:54:39;4.17;;;2.77;;
11996;SDS011;6058;48.704;9.474;2023-11-22T12:57:10;5.27;;;3.53;;
11996;SDS011;6058;48.704;9.474;2023-11-22T12:59:39;3.87;;;2.80;;
11996;SDS011;6058;48.704;9.474;2023-11-22T13:02:06;3.03;;;2.40;;
11996;SDS011;6058;48.704;9.474;2023-11-22T13:04:34;3.43;;;2.70;;
11996;SDS011;6058;48.704;9.474;2023-11-22T13:07:01;2.93;;;2.63;;
11996;SDS011;6058;48.704;9.474;2023-11-22T13:09:28;3.30;;;2.37;;
11996;SDS011;6058;48.704;9.474;2023-11-22T13:11:57;2.30;;;2.07;;
11996;SDS011;6058;48.704;9.474;2023-11-22T13:14:24;2.80;;;2.47;;
11996;SDS011;6058;48.704;9.474;2023-11-22T13:16:58;2.87;;;2.27;;
11996;SDS011;6058;48.704;9.474;2023-11-22T13:19:25;2.80;;;2.60;;
11996;SDS011;6058;48.704;9.474;2023-11-22T13:21:52;2.73;;;2.53;;
11996;SDS011;6058;48.704;9.474;2023-11-22T13:24:19;3.10;;;2.80;;
11996;SDS011;6058;48.704;9.474;2023-11-22T13:26:47;4.07;;;2.80;;
11996;SDS011;6058;48.704;9.474;2023-11-22T13:29:14;2.87;;;2.60;;
11996;SDS011;6058;48.704;9.474;2023-11-22T13:31:41;3.70;;;2.80;;
11996;SDS011;6058;48.704;9.474;2023-11-22T13:34:09;2.40;;;2.20;;
11996;SDS011;6058;48.704;9.474;2023-11-22T13:36:37;3.50;;;2.70;;
11996;SDS011;6058;48.704;9.474;2023-11-22T13:39:04;2.50;;;2.23;;
11996;SDS011;6058;48.704;9.474;2023-11-22T13:41:31;3.27;;;2.90;;
11996;SDS011;6058;48.704;9.474;2023-11-22T13:43:58;2.80;;;2.50;;
11996;SDS011;6058;48.704;9.474;2023-11-22T13:46:26;3.80;;;2.60;;
11996;SDS011;6058;48.704;9.474;2023-11-22T13:48:53;3.87;;;2.23;;
11996;SDS011;6058;48.704;9.474;2023-11-22T13:51:21;2.90;;;2.53;;
11996;SDS011;6058;48.704;9.474;2023-11-22T13:53:50;3.73;;;3.03;;
11996;SDS011;6058;48.704;9.474;2023-11-22T13:56:18;2.83;;;2.57;;
11996;SDS011;6058;48.704;9.474;2023-11-22T13:58:46;5.63;;;2.90;;
11996;SDS011;6058;48.704;9.474;2023-11-22T14:01:14;3.10;;;2.80;;
11996;SDS011;6058;48.704;9.474;2023-11-22T14:03:46;3.80;;;2.93;;
11996;SDS011;6058;48.704;9.474;2023-11-22T14:06:21;3.60;;;3.13;;
11996;SDS011;6058;48.704;9.474;2023-11-22T14:08:48;3.40;;;3.00;;
11996;SDS011;6058;48.704;9.474;2023-11-22T14:11:15;3.20;;;2.73;;
11996;SDS011;6058;48.704;9.474;2023-11-22T14:13:43;3.20;;;2.90;;
11996;SDS011;6058;48.704;9.474;2023-11-22T14:16:10;3.43;;;2.60;;
11996;SDS011;6058;48.704;9.474;2023-11-22T14:18:38;3.43;;;2.97;;
11996;SDS011;6058;48.704;9.474;2023-11-22T14:21:06;2.90;;;2.57;;
11996;SDS011;6058;48.704;9.474;2023-11-22T14:23:35;2.73;;;2.50;;
11996;SDS011;6058;48.704;9.474;2023-11-22T14:26:02;3.63;;;3.30;;
11996;SDS011;6058;48.704;9.474;2023-11-22T14:28:29;2.80;;;2.60;;
11996;SDS011;6058;48.704;9.474;2023-11-22T14:30:58;3.27;;;2.53;;
11996;SDS011;6058;48.704;9.474;2023-11-22T14:33:25;3.03;;;2.47;;
11996;SDS011;6058;48.704;9.474;2023-11-22T14:35:57;3.63;;;2.50;;
11996;SDS011;6058;48.704;9.474;2023-11-22T14:38:24;3.17;;;2.73;;
11996;SDS011;6058;48.704;9.474;2023-11-22T14:40:53;3.13;;;2.80;;
11996;SDS011;6058;48.704;9.474;2023-11-22T14:43:21;2.53;;;2.33;;
11996;SDS011;6058;48.704;9.474;2023-11-22T14:45:48;4.10;;;3.00;;
11996;SDS011;6058;48.704;9.474;2023-11-22T14:48:16;3.80;;;2.80;;
11996;SDS011;6058;48.704;9.474;2023-11-22T14:50:43;3.67;;;2.70;;
11996;SDS011;6058;48.704;9.474;2023-11-22T14:53:11;3.23;;;2.90;;
11996;SDS011;6058;48.704;9.474;2023-11-22T14:55:38;3.13;;;2.83;;
11996;SDS011;6058;48.704;9.474;2023-11-22T14:58:08;3.57;;;2.70;;
11996;SDS011;6058;48.704;9.474;2023-11-22T15:00:35;3.50;;;2.93;;
11996;SDS011;6058;48.704;9.474;2023-11-22T15:03:03;4.97;;;2.90;;
11996;SDS011;6058;48.704;9.474;2023-11-22T15:05:30;2.97;;;2.67;;
11996;SDS011;6058;48.704;9.474;2023-11-22T15:07:57;3.63;;;2.90;;